createdAt,value
2018-10-11T00:01:33.574Z,29.93
2018-10-11T00:04:04.173Z,26.30
2018-10-11T00:06:34.651Z,27.77
2018-10-11T00:09:06.019Z,27.63
2018-10-11T00:11:35.815Z,29.23
2018-10-11T00:14:05.562Z,26.17
2018-10-11T00:16:36.137Z,27.00
2018-10-11T00:19:06.645Z,25.63
2018-10-11T00:21:37.105Z,26.33
2018-10-11T00:24:07.679Z,27.90
2018-10-11T00:26:38.354Z,29.37
2018-10-11T00:29:08.812Z,27.13
2018-10-11T00:31:38.619Z,27.70
2018-10-11T00:34:08.977Z,28.23
2018-10-11T00:36:39.385Z,26.33
2018-10-11T00:39:10.054Z,26.47
2018-10-11T00:41:40.509Z,31.17
2018-10-11T00:44:13.213Z,29.23
2018-10-11T00:46:43.052Z,26.77
2018-10-11T00:49:13.585Z,26.87
2018-10-11T00:51:44.085Z,30.40
2018-10-11T00:54:14.669Z,29.77
2018-10-11T00:56:45.176Z,29.13
2018-10-11T00:59:15.601Z,31.07
2018-10-11T01:01:45.876Z,30.37
2018-10-11T01:04:15.917Z,29.20
2018-10-11T01:06:46.275Z,28.43
2018-10-11T01:09:16.946Z,29.67
2018-10-11T01:11:47.368Z,25.67
2018-10-11T01:14:17.955Z,27.50
2018-10-11T01:16:48.586Z,29.90
2018-10-11T01:19:19.034Z,31.77
2018-10-11T01:21:49.452Z,27.43
2018-10-11T01:24:19.978Z,32.00
2018-10-11T01:26:50.416Z,29.97
2018-10-11T01:29:20.910Z,31.10
2018-10-11T01:31:51.549Z,32.10
2018-10-11T01:34:21.870Z,29.17
2018-10-11T01:36:52.228Z,28.10
2018-10-11T01:39:22.721Z,28.70
2018-10-11T01:41:53.225Z,32.17
2018-10-11T01:44:23.758Z,27.97
2018-10-11T01:46:53.479Z,30.30
2018-10-11T01:49:23.935Z,29.07
2018-10-11T01:51:54.349Z,30.93
2018-10-11T01:54:24.875Z,34.17
2018-10-11T01:56:55.264Z,32.13
2018-10-11T01:59:25.108Z,28.67
2018-10-11T02:01:55.520Z,34.33
2018-10-11T02:04:25.912Z,31.10
2018-10-11T02:06:56.383Z,33.97
2018-10-11T02:09:27.040Z,29.53
2018-10-11T02:11:57.621Z,28.90
2018-10-11T02:14:27.371Z,32.10
2018-10-11T02:16:58.207Z,34.30
2018-10-11T02:19:28.668Z,32.00
2018-10-11T02:21:59.109Z,31.27
2018-10-11T02:24:29.637Z,34.53
2018-10-11T02:27:00.106Z,35.40
2018-10-11T02:29:30.616Z,36.43
2018-10-11T02:32:01.046Z,35.60
2018-10-11T02:34:31.416Z,34.87
2018-10-11T02:37:02.022Z,33.77
2018-10-11T02:39:32.294Z,32.43
2018-10-11T02:42:02.767Z,37.33
2018-10-11T02:44:33.052Z,40.37
2018-10-11T02:47:03.459Z,39.93
2018-10-11T02:49:33.844Z,34.77
2018-10-11T02:52:04.369Z,35.00
2018-10-11T02:54:34.860Z,36.40
2018-10-11T02:57:05.685Z,40.37
2018-10-11T02:59:37.558Z,37.77
2018-10-11T03:02:15.381Z,35.83
2018-10-11T03:04:48.529Z,35.93
2018-10-11T03:07:19.533Z,35.87
2018-10-11T03:09:50.016Z,38.23
2018-10-11T03:12:19.920Z,36.70
2018-10-11T03:14:50.213Z,37.43
2018-10-11T03:17:21.045Z,35.43
2018-10-11T03:19:51.477Z,39.43
2018-10-11T03:22:22.010Z,36.90
2018-10-11T03:24:51.763Z,39.30
2018-10-11T03:27:22.084Z,38.33
2018-10-11T03:29:52.000Z,42.30
2018-10-11T03:32:22.281Z,35.50
2018-10-11T03:34:52.669Z,41.03
2018-10-11T03:37:22.911Z,38.37
2018-10-11T03:39:53.394Z,37.47
2018-10-11T03:42:23.109Z,37.37
2018-10-11T03:44:53.260Z,38.80
2018-10-11T03:47:23.645Z,35.40
2018-10-11T03:49:54.217Z,36.10
2018-10-11T03:52:24.621Z,37.67
2018-10-11T03:54:55.042Z,42.93
2018-10-11T03:57:25.492Z,41.17
2018-10-11T03:59:56.130Z,39.97
2018-10-11T04:02:26.857Z,43.53
2018-10-11T04:04:57.610Z,38.60
2018-10-11T04:07:28.146Z,41.63
2018-10-11T04:09:58.760Z,39.07
2018-10-11T04:12:29.237Z,41.50
2018-10-11T04:14:59.572Z,40.33
2018-10-11T04:17:29.436Z,43.13
2018-10-11T04:20:00.011Z,42.97
2018-10-11T04:22:29.755Z,38.47
2018-10-11T04:25:00.187Z,42.07
2018-10-11T04:27:30.608Z,42.23
2018-10-11T04:30:01.051Z,42.83
2018-10-11T04:32:31.513Z,44.37
2018-10-11T04:35:01.990Z,45.07
2018-10-11T04:37:32.461Z,46.17
2018-10-11T04:40:03.044Z,44.53
2018-10-11T04:42:33.635Z,40.70
2018-10-11T04:45:04.233Z,44.80
2018-10-11T04:47:34.657Z,42.00
2018-10-11T04:50:05.121Z,47.57
2018-10-11T04:52:35.446Z,45.53
2018-10-11T04:55:06.192Z,51.53
2018-10-11T04:57:36.001Z,44.90
2018-10-11T05:00:06.517Z,42.27
2018-10-11T05:02:36.857Z,44.60
2018-10-11T05:05:06.840Z,44.10
2018-10-11T05:07:37.050Z,45.30
2018-10-11T05:10:07.620Z,41.67
2018-10-11T05:12:37.515Z,44.57
2018-10-11T05:15:08.429Z,45.27
2018-10-11T05:17:38.929Z,45.03
2018-10-11T05:20:09.561Z,45.47
2018-10-11T05:22:39.836Z,46.23
2018-10-11T05:25:09.665Z,42.77
2018-10-11T05:27:40.331Z,47.13
2018-10-11T05:30:10.933Z,43.57
2018-10-11T05:32:40.943Z,45.53
2018-10-11T05:35:11.177Z,51.03
2018-10-11T05:37:41.627Z,44.87
2018-10-11T05:40:12.079Z,42.30
2018-10-11T05:42:42.750Z,45.43
2018-10-11T05:45:14.101Z,44.70
2018-10-11T05:47:45.149Z,47.40
2018-10-11T05:50:15.144Z,51.23
2018-10-11T05:52:45.693Z,52.73
2018-10-11T05:55:15.630Z,44.40
2018-10-11T05:57:46.008Z,47.33
2018-10-11T06:00:16.506Z,53.53
2018-10-11T06:03:06.019Z,47.00
2018-10-11T06:05:36.407Z,49.10
2018-10-11T06:08:07.097Z,49.17
2018-10-11T06:10:40.184Z,55.50
2018-10-11T06:13:10.486Z,51.13
2018-10-11T06:15:40.661Z,49.20
2018-10-11T06:18:11.111Z,60.20
2018-10-11T06:20:42.060Z,56.30
2018-10-11T06:23:12.484Z,50.30
2018-10-11T06:25:43.001Z,51.53
2018-10-11T06:28:13.715Z,54.63
2018-10-11T06:30:44.418Z,51.10
2018-10-11T06:33:15.085Z,57.67
2018-10-11T06:35:45.755Z,54.03
2018-10-11T06:38:16.318Z,55.17
2018-10-11T06:40:47.064Z,55.07
2018-10-11T06:43:17.598Z,53.73
2018-10-11T06:45:48.481Z,53.70
2018-10-11T06:48:19.469Z,48.83
2018-10-11T06:50:50.173Z,45.40
2018-10-11T06:53:19.971Z,48.17
2018-10-11T06:55:49.739Z,54.17
2018-10-11T06:58:20.124Z,55.17
2018-10-11T07:00:50.733Z,52.70
2018-10-11T07:03:21.109Z,50.93
2018-10-11T07:05:51.612Z,51.67
2018-10-11T07:08:22.379Z,64.33
2018-10-11T07:10:52.879Z,51.07
2018-10-11T07:13:23.372Z,48.17
2018-10-11T07:15:53.857Z,51.27
2018-10-11T07:18:24.356Z,53.73
2018-10-11T07:20:54.500Z,56.20
2018-10-11T07:23:24.900Z,52.83
2018-10-11T07:25:55.393Z,54.37
2018-10-11T07:28:25.267Z,52.33
2018-10-11T07:30:55.597Z,53.03
2018-10-11T07:33:26.208Z,48.10
2018-10-11T07:35:56.625Z,53.70
2018-10-11T07:38:26.460Z,47.93
2018-10-11T07:40:56.928Z,50.63
2018-10-11T07:43:27.422Z,45.53
2018-10-11T07:45:58.047Z,48.20
2018-10-11T07:48:28.589Z,46.37
2018-10-11T07:50:59.093Z,49.23
2018-10-11T07:53:29.429Z,50.97
2018-10-11T07:55:59.673Z,47.90
2018-10-11T07:58:30.184Z,42.00
2018-10-11T08:01:00.367Z,49.03
2018-10-11T08:03:30.198Z,46.63
2018-10-11T08:06:00.600Z,47.63
2018-10-11T08:08:30.486Z,46.40
2018-10-11T08:11:00.368Z,48.03
2018-10-11T08:13:30.602Z,45.30
2018-10-11T08:16:01.188Z,44.10
2018-10-11T08:18:31.645Z,49.03
2018-10-11T08:21:02.184Z,45.70
2018-10-11T08:23:32.585Z,47.13
2018-10-11T08:26:03.511Z,45.63
2018-10-11T08:28:33.846Z,44.37
2018-10-11T08:31:04.345Z,43.27
2018-10-11T08:33:34.806Z,40.17
2018-10-11T08:36:05.065Z,40.57
2018-10-11T08:38:35.610Z,42.87
2018-10-11T08:41:05.965Z,39.47
2018-10-11T08:43:35.802Z,40.40
2018-10-11T08:46:06.753Z,39.67
2018-10-11T08:48:37.266Z,39.17
2018-10-11T08:51:07.762Z,37.63
2018-10-11T08:53:37.547Z,35.57
2018-10-11T08:56:07.355Z,40.20
2018-10-11T08:58:37.753Z,36.93
2018-10-11T09:01:08.176Z,34.43
2018-10-11T09:03:38.652Z,37.03
2018-10-11T09:06:09.199Z,37.00
2018-10-11T09:08:39.014Z,35.87
2018-10-11T09:11:08.724Z,35.43
2018-10-11T09:13:38.539Z,44.63
2018-10-11T09:16:08.993Z,33.77
2018-10-11T09:18:45.393Z,34.43
2018-10-11T09:21:15.893Z,33.57
2018-10-11T09:23:46.278Z,29.43
2018-10-11T09:26:16.096Z,29.70
2018-10-11T09:28:46.405Z,31.47
2018-10-11T09:31:16.938Z,28.63
2018-10-11T09:33:47.389Z,27.53
2018-10-11T09:36:17.962Z,28.53
2018-10-11T09:38:48.486Z,27.77
2018-10-11T09:41:19.001Z,25.43
2018-10-11T09:43:49.380Z,27.40
2018-10-11T09:46:19.156Z,27.73
2018-10-11T09:48:49.988Z,22.87
2018-10-11T09:51:20.287Z,27.20
2018-10-11T09:53:50.753Z,24.80
2018-10-11T09:56:21.258Z,24.73
2018-10-11T09:58:51.604Z,28.37
2018-10-11T10:01:27.213Z,27.90
2018-10-11T10:03:57.700Z,21.27
2018-10-11T10:06:28.026Z,19.90
2018-10-11T10:09:02.694Z,22.53
2018-10-11T10:11:49.401Z,23.00
2018-10-11T10:14:19.757Z,24.23
2018-10-11T10:16:50.677Z,20.30
2018-10-11T10:19:20.942Z,19.00
2018-10-11T10:21:51.388Z,21.53
2018-10-11T10:24:22.370Z,20.17
2018-10-11T10:26:52.677Z,20.50
2018-10-11T10:29:23.019Z,19.47
2018-10-11T10:31:53.324Z,19.50
2018-10-11T10:34:23.510Z,19.10
2018-10-11T10:36:53.265Z,21.67
2018-10-11T10:39:24.017Z,22.67
2018-10-11T10:41:54.280Z,22.47
2018-10-11T10:44:24.688Z,21.63
2018-10-11T10:46:55.162Z,19.40
2018-10-11T10:49:25.393Z,20.57
2018-10-11T10:51:55.707Z,18.40
2018-10-11T10:54:29.341Z,20.47
2018-10-11T10:57:00.405Z,20.17
2018-10-11T10:59:30.856Z,21.73
2018-10-11T11:02:01.270Z,18.40
2018-10-11T11:04:31.016Z,18.87
2018-10-11T11:07:01.269Z,19.83
2018-10-11T11:09:31.560Z,24.37
2018-10-11T11:12:01.884Z,19.53
2018-10-11T11:14:32.295Z,18.80
2018-10-11T11:17:02.592Z,20.47
2018-10-11T11:19:32.859Z,16.07
2018-10-11T11:22:03.214Z,18.27
2018-10-11T11:24:33.245Z,19.37
2018-10-11T11:27:03.647Z,19.77
2018-10-11T11:29:33.666Z,17.93
2018-10-11T11:32:04.189Z,16.87
2018-10-11T11:34:34.392Z,19.83
2018-10-11T11:37:04.862Z,18.20
2018-10-11T11:39:35.515Z,15.70
2018-10-11T11:42:05.362Z,20.67
2018-10-11T11:44:35.541Z,20.60
2018-10-11T11:47:05.809Z,17.20
2018-10-11T11:49:36.049Z,15.57
2018-10-11T11:52:06.122Z,19.20
2018-10-11T11:54:36.394Z,20.10
2018-10-11T11:57:06.797Z,13.47
2018-10-11T11:59:37.077Z,17.70
2018-10-11T12:02:07.591Z,16.10
2018-10-11T12:04:37.923Z,18.23
2018-10-11T12:07:08.229Z,14.50
2018-10-11T12:09:38.857Z,20.10
2018-10-11T12:12:09.558Z,14.60
2018-10-11T12:14:39.581Z,17.10
2018-10-11T12:17:09.636Z,14.90
2018-10-11T12:19:39.693Z,16.27
2018-10-11T12:22:09.778Z,15.97
2018-10-11T12:24:40.092Z,17.37
2018-10-11T12:27:10.198Z,16.97
2018-10-11T12:29:40.599Z,13.63
2018-10-11T12:32:10.717Z,13.07
2018-10-11T12:34:42.317Z,14.50
2018-10-11T12:37:12.414Z,17.27
2018-10-11T12:39:42.362Z,16.90
2018-10-11T12:42:12.117Z,14.13
2018-10-11T12:44:42.418Z,22.07
2018-10-11T12:47:12.739Z,14.57
2018-10-11T12:49:46.615Z,15.87
2018-10-11T12:52:12.978Z,16.47
2018-10-11T12:54:43.069Z,16.73
2018-10-11T12:57:16.185Z,15.23
2018-10-11T12:59:43.611Z,17.90
2018-10-11T13:02:14.221Z,17.73
2018-10-11T13:04:44.248Z,16.17
2018-10-11T13:07:15.300Z,14.77
2018-10-11T13:09:45.322Z,14.53
2018-10-11T13:12:15.480Z,15.13
2018-10-11T13:14:45.543Z,14.33
2018-10-11T13:17:15.654Z,15.75
2018-10-11T13:19:45.691Z,14.20
2018-10-11T13:22:16.070Z,13.62
2018-10-11T13:24:48.291Z,16.52
2018-10-11T13:27:16.616Z,15.88
2018-10-11T13:29:46.848Z,15.00
2018-10-11T13:32:16.945Z,16.47
2018-10-11T13:34:47.045Z,23.90
2018-10-11T13:37:17.093Z,17.40
2018-10-11T13:39:52.023Z,12.05
2018-10-11T13:42:17.289Z,13.43
2018-10-11T13:44:47.329Z,13.63
2018-10-11T13:47:17.482Z,12.30
2018-10-11T13:49:47.492Z,16.57
2018-10-11T13:52:20.556Z,16.20
2018-10-11T13:54:47.669Z,11.80
2018-10-11T13:57:17.765Z,12.03
2018-10-11T13:59:47.794Z,14.47
2018-10-11T14:02:17.890Z,15.57
2018-10-11T14:04:47.930Z,16.13
2018-10-11T14:07:18.045Z,16.42
2018-10-11T14:09:48.364Z,16.90
2018-10-11T14:12:18.479Z,13.90
2018-10-11T14:14:48.616Z,16.32
2018-10-11T14:17:18.688Z,14.00
2018-10-11T14:19:48.737Z,12.70
2018-10-11T14:22:19.182Z,15.78
2018-10-11T14:24:49.537Z,21.07
2018-10-11T14:27:19.933Z,17.20
2018-10-11T14:29:49.963Z,16.20
2018-10-11T14:32:20.466Z,17.73
2018-10-11T14:34:50.499Z,20.43
2018-10-11T14:37:20.945Z,17.23
2018-10-11T14:39:50.783Z,18.33
2018-10-11T14:42:20.877Z,15.90
2018-10-11T14:44:50.356Z,16.37
2018-10-11T14:47:19.737Z,13.77
2018-10-11T14:49:49.726Z,17.97
2018-10-11T14:52:19.793Z,18.00
2018-10-11T14:54:49.861Z,17.13
2018-10-11T14:57:19.916Z,16.73
2018-10-11T14:59:50.041Z,16.87
2018-10-11T15:02:20.143Z,16.80
2018-10-11T15:04:50.209Z,12.93
2018-10-11T15:07:19.664Z,17.97
2018-10-11T15:09:49.604Z,11.73
2018-10-11T15:12:19.821Z,15.30
2018-10-11T15:14:49.848Z,16.73
2018-10-11T15:17:19.943Z,12.87
2018-10-11T15:19:50.014Z,17.40
2018-10-11T15:22:20.158Z,12.97
2018-10-11T15:24:50.179Z,17.13
2018-10-11T15:27:20.318Z,13.40
2018-10-11T15:29:49.770Z,16.03
2018-10-11T15:32:19.932Z,16.43
2018-10-11T15:34:50.069Z,20.27
2018-10-11T15:37:20.105Z,16.53
2018-10-11T15:39:50.216Z,16.93
2018-10-11T15:42:20.261Z,18.27
2018-10-11T15:44:49.701Z,21.90
2018-10-11T15:47:19.978Z,19.53
2018-10-11T15:49:49.420Z,16.97
2018-10-11T15:52:19.446Z,17.23
2018-10-11T15:54:49.497Z,20.23
2018-10-11T15:57:19.595Z,20.87
2018-10-11T15:59:49.941Z,30.77
2018-10-11T16:02:20.041Z,40.23
2018-10-11T16:04:49.529Z,43.37
2018-10-11T16:07:19.449Z,38.13
2018-10-11T16:09:49.509Z,32.40
2018-10-11T16:12:18.947Z,30.37
2018-10-11T16:14:48.934Z,40.07
2018-10-11T16:17:18.485Z,38.97
2018-10-11T16:19:48.473Z,42.50
2018-10-11T16:22:18.973Z,35.00
2018-10-11T16:24:49.302Z,31.30
2018-10-11T16:27:19.412Z,24.47
2018-10-11T16:29:49.988Z,20.37
2018-10-11T16:32:20.194Z,15.80
2018-10-11T16:34:50.179Z,16.93
2018-10-11T16:37:20.316Z,13.80
2018-10-11T16:39:50.345Z,16.37
2018-10-11T16:42:19.775Z,14.77
2018-10-11T16:44:50.094Z,16.27
2018-10-11T16:47:20.521Z,11.87
2018-10-11T16:49:50.627Z,13.77
2018-10-11T16:52:21.827Z,18.07
2018-10-11T16:54:53.787Z,17.97
2018-10-11T16:57:23.841Z,16.10
2018-10-11T16:59:53.939Z,25.00
2018-10-11T17:02:23.743Z,26.60
2018-10-11T17:04:54.171Z,22.43
2018-10-11T17:07:23.997Z,17.93
2018-10-11T17:09:58.997Z,15.77
2018-10-11T17:12:30.590Z,11.93
2018-10-11T17:17:46.413Z,18.43
2018-10-11T17:20:16.482Z,16.07
2018-10-11T17:22:48.778Z,16.00
2018-10-11T17:25:18.285Z,13.50
2018-10-11T17:27:48.515Z,14.63
2018-10-11T17:30:18.605Z,13.13
2018-10-11T17:32:49.621Z,11.40
2018-10-11T17:35:21.064Z,11.40
2018-10-11T17:37:56.405Z,15.00
2018-10-11T17:40:34.030Z,12.03
2018-10-11T17:43:03.652Z,14.03
2018-10-11T17:45:34.869Z,12.70
2018-10-11T17:48:10.683Z,14.10
2018-10-11T17:50:49.896Z,14.73
2018-10-11T17:53:25.677Z,12.70
2018-10-11T17:55:57.342Z,12.50
2018-10-11T17:58:28.568Z,13.37
2018-10-11T18:01:02.809Z,13.97
2018-10-11T18:06:12.510Z,14.87
2018-10-11T18:08:47.326Z,18.27
2018-10-11T18:11:17.557Z,16.63
2018-10-11T18:13:48.759Z,15.77
2018-10-11T18:16:20.220Z,16.33
2018-10-11T18:18:50.284Z,11.87
2018-10-11T18:21:22.474Z,18.20
2018-10-11T18:23:52.435Z,11.00
2018-10-11T18:26:24.760Z,11.33
2018-10-11T18:28:59.811Z,12.10
2018-10-11T18:31:35.718Z,16.40
2018-10-11T18:34:05.580Z,14.00
2018-10-11T18:36:35.629Z,12.53
2018-10-11T18:39:14.437Z,15.50
2018-10-11T18:44:25.817Z,14.63
2018-10-11T18:46:58.733Z,11.03
2018-10-11T18:49:32.823Z,12.50
2018-10-11T18:52:09.784Z,12.77
2018-10-11T18:54:45.412Z,16.30
2018-10-11T18:57:15.857Z,14.80
2018-10-11T18:59:51.818Z,22.63
2018-10-11T19:05:04.518Z,23.40
2018-10-11T19:07:39.300Z,15.53
2018-10-11T19:10:10.437Z,17.37
2018-10-11T19:12:42.683Z,17.90
2018-10-11T19:17:51.589Z,19.40
2018-10-11T19:20:26.429Z,27.23
2018-10-11T19:22:56.764Z,29.77
2018-10-11T19:28:09.580Z,22.93
2018-10-11T19:30:40.319Z,20.00
2018-10-11T19:33:10.500Z,17.77
2018-10-11T19:35:42.818Z,21.27
2018-10-11T19:38:14.581Z,20.20
2018-10-11T19:40:49.988Z,24.27
2018-10-11T19:43:21.293Z,34.23
2018-10-11T19:45:52.098Z,30.83
2018-10-11T19:48:22.468Z,34.70
2018-10-11T19:50:52.777Z,39.93
2018-10-11T19:53:26.900Z,41.73
2018-10-11T19:55:59.182Z,37.10
2018-10-11T19:58:29.679Z,36.60
2018-10-11T20:01:00.137Z,36.03
2018-10-11T20:03:30.958Z,31.23
2018-10-11T20:06:01.717Z,26.53
2018-10-11T20:08:32.463Z,30.10
2018-10-11T20:11:02.403Z,27.43
2018-10-11T20:13:32.903Z,30.63
2018-10-11T20:16:03.481Z,25.87
2018-10-11T20:19:36.990Z,27.83
2018-10-11T20:22:09.369Z,23.83
2018-10-11T20:24:39.665Z,28.57
2018-10-11T20:27:09.880Z,29.73
2018-10-11T20:29:39.812Z,25.27
2018-10-11T20:32:11.118Z,28.33
2018-10-11T20:34:41.597Z,29.03
2018-10-11T20:37:12.466Z,28.83
2018-10-11T20:39:43.114Z,30.93
2018-10-11T20:42:13.693Z,27.30
2018-10-11T20:44:44.305Z,30.97
2018-10-11T20:47:14.783Z,30.63
2018-10-11T20:49:45.430Z,36.10
2018-10-11T20:52:15.688Z,37.73
2018-10-11T20:54:46.501Z,40.20
2018-10-11T20:57:16.815Z,41.23
2018-10-11T20:59:47.035Z,40.73
2018-10-11T21:02:17.574Z,31.57
2018-10-11T21:04:47.905Z,34.47
2018-10-11T21:07:18.169Z,34.13
2018-10-11T21:09:48.840Z,36.93
2018-10-11T21:12:19.225Z,31.27
2018-10-11T21:14:49.704Z,32.47
2018-10-11T21:17:19.993Z,30.77
2018-10-11T21:19:50.447Z,30.70
2018-10-11T21:22:20.826Z,28.00
2018-10-11T21:24:51.355Z,30.10
2018-10-11T21:27:21.923Z,35.23
2018-10-11T21:29:52.264Z,32.57
2018-10-11T21:32:23.057Z,29.37
2018-10-11T21:34:53.597Z,31.70
2018-10-11T21:37:23.932Z,31.13
2018-10-11T21:39:54.309Z,30.27
2018-10-11T21:42:24.724Z,30.57
2018-10-11T21:44:55.097Z,29.07
2018-10-11T21:47:25.668Z,27.27
2018-10-11T21:49:56.025Z,28.73
2018-10-11T21:52:26.499Z,28.77
2018-10-11T21:54:56.983Z,27.93
2018-10-11T21:57:27.253Z,31.30
2018-10-11T21:59:57.545Z,31.23
2018-10-11T22:02:27.760Z,30.03
2018-10-11T22:04:58.302Z,31.07
2018-10-11T22:07:28.665Z,30.93
2018-10-11T22:09:58.513Z,28.60
2018-10-11T22:12:28.945Z,29.70
2018-10-11T22:14:59.648Z,31.23
2018-10-11T22:17:30.024Z,31.83
2018-10-11T22:20:00.833Z,31.40
2018-10-11T22:22:31.329Z,36.50
2018-10-11T22:25:01.649Z,34.80
2018-10-11T22:27:31.469Z,35.73
2018-10-11T22:30:01.680Z,33.40
2018-10-11T22:32:31.487Z,32.77
2018-10-11T22:35:01.612Z,33.33
2018-10-11T22:37:32.047Z,30.47
2018-10-11T22:40:01.891Z,32.87
2018-10-11T22:42:32.156Z,38.10
2018-10-11T22:45:02.668Z,38.17
2018-10-11T22:47:33.104Z,35.57
2018-10-11T22:50:03.697Z,36.67
2018-10-11T22:52:34.264Z,31.50
2018-10-11T22:55:04.612Z,36.73
2018-10-11T22:57:35.052Z,36.37
2018-10-11T23:00:04.995Z,37.63
2018-10-11T23:02:35.360Z,36.07
2018-10-11T23:05:05.948Z,35.90
2018-10-11T23:07:36.581Z,30.87
2018-10-11T23:10:06.952Z,34.87
2018-10-11T23:12:37.329Z,37.20
2018-10-11T23:15:08.057Z,35.53
2018-10-11T23:17:38.444Z,37.07
2018-10-11T23:20:09.218Z,36.00
2018-10-11T23:22:40.207Z,36.10
2018-10-11T23:25:11.278Z,39.87
2018-10-11T23:27:42.089Z,38.20
2018-10-11T23:30:13.253Z,37.87
2018-10-11T23:32:43.665Z,39.30
2018-10-11T23:35:14.161Z,38.10
2018-10-11T23:37:44.465Z,38.77
2018-10-11T23:40:14.990Z,41.60
2018-10-11T23:42:45.793Z,36.97
2018-10-11T23:45:15.567Z,40.77
2018-10-11T23:47:45.859Z,42.67
2018-10-11T23:50:16.272Z,38.63
2018-10-11T23:52:46.652Z,42.57
2018-10-11T23:55:17.141Z,45.13
2018-10-11T23:57:47.504Z,46.77
